Time;durP1;ratioP1;P1;durP2;ratioP2;P2;SDS_P1;SDS_P2;PMS_P1;PMS_P2;Temp;Humidity;BMP_temperature;BMP_pressure;BME280_temperature;BME280_humidity;BME280_pressure;Samples;Min_cycle;Max_cycle;Signal;HPM_P1;HPM_P2
2023/05/16 03:59:53;;;;;;;1.60;1.60;;;8.80;99.90;;;;;;4955548;29;20248;-73
2023/05/16 04:02:20;;;;;;;1.63;1.63;;;8.80;99.90;;;;;;4956818;29;20223;-74
2023/05/16 04:04:47;;;;;;;1.70;1.70;;;8.80;99.90;;;;;;4957003;29;20204;-74
2023/05/16 04:07:14;;;;;;;1.50;1.50;;;8.80;99.90;;;;;;4957081;29;20200;-73
2023/05/16 04:09:41;;;;;;;1.70;1.70;;;8.80;99.90;;;;;;4974660;28;20226;-72
2023/05/16 04:12:08;;;;;;;1.67;1.67;;;8.90;99.90;;;;;;4998607;23;20235;-66
2023/05/16 04:14:35;;;;;;;1.40;1.40;;;8.90;99.90;;;;;;4976545;28;20211;-66
2023/05/16 04:17:03;;;;;;;1.58;1.58;;;8.90;99.90;;;;;;4976074;28;20218;-66
2023/05/16 04:19:30;;;;;;;1.77;1.77;;;9.00;99.90;;;;;;4976000;28;20333;-66
2023/05/16 04:21:56;;;;;;;2.28;2.28;;;9.00;99.90;;;;;;4975907;28;20277;-66
2023/05/16 04:24:25;;;;;;;2.13;2.03;;;9.00;99.90;;;;;;4975871;28;20207;-66
2023/05/16 04:26:52;;;;;;;2.55;2.45;;;9.00;99.90;;;;;;4975804;28;20215;-66
2023/05/16 04:29:18;;;;;;;6.53;5.82;;;9.00;99.90;;;;;;4975682;28;20555;-67
2023/05/16 04:31:45;;;;;;;6.57;6.07;;;9.10;99.90;;;;;;4975933;28;20231;-67
2023/05/16 04:34:14;;;;;;;6.22;5.72;;;9.10;99.90;;;;;;4975854;28;20214;-67
2023/05/16 04:36:41;;;;;;;25.38;19.40;;;9.20;99.90;;;;;;4975852;28;20224;-65
2023/05/16 04:39:08;;;;;;;24.58;18.42;;;9.20;99.90;;;;;;4975345;28;20697;-65
2023/05/16 04:41:35;;;;;;;21.50;16.13;;;9.20;99.90;;;;;;4975820;28;20219;-65
2023/05/16 04:44:02;;;;;;;18.65;14.07;;;9.30;99.90;;;;;;4975282;28;20551;-65
2023/05/16 04:46:29;;;;;;;19.10;15.45;;;9.40;99.90;;;;;;4975668;28;20199;-65
2023/05/16 04:48:56;;;;;;;17.13;14.27;;;9.40;99.90;;;;;;4975517;28;20254;-68
2023/05/16 04:51:24;;;;;;;23.80;17.67;;;9.50;99.90;;;;;;4975354;28;20223;-67
2023/05/16 04:53:51;;;;;;;19.42;14.25;;;9.50;99.90;;;;;;4975411;28;20207;-68
2023/05/16 04:56:19;;;;;;;22.60;16.83;;;9.50;99.90;;;;;;4975174;28;20250;-69
2023/05/16 04:58:45;;;;;;;22.08;17.42;;;9.60;99.90;;;;;;4975144;28;20241;-68
2023/05/16 05:01:12;;;;;;;36.97;22.30;;;9.60;99.90;;;;;;4975163;28;20234;-67
2023/05/16 05:03:39;;;;;;;34.20;22.60;;;9.60;99.90;;;;;;4975136;28;20210;-68
2023/05/16 05:06:06;;;;;;;29.23;20.50;;;9.70;99.90;;;;;;4975138;28;20566;-68
2023/05/16 05:08:34;;;;;;;27.27;19.58;;;9.70;99.90;;;;;;4975082;28;20207;-68
2023/05/16 05:11:00;;;;;;;26.17;18.42;;;9.70;99.90;;;;;;4974771;28;20235;-68
2023/05/16 05:13:27;;;;;;;22.98;17.98;;;9.70;99.90;;;;;;4974782;28;20666;-68
2023/05/16 05:15:54;;;;;;;26.70;19.77;;;9.80;99.90;;;;;;4974682;28;20730;-68
2023/05/16 05:18:20;;;;;;;30.88;21.55;;;9.80;99.90;;;;;;4974595;28;20587;-68
2023/05/16 05:20:47;;;;;;;39.78;25.58;;;9.90;99.90;;;;;;4974844;28;20227;-68
2023/05/16 05:23:14;;;;;;;39.38;24.88;;;9.90;99.90;;;;;;4974686;28;20209;-68
2023/05/16 05:25:42;;;;;;;36.55;23.15;;;9.90;99.90;;;;;;4974835;28;20298;-68
2023/05/16 05:28:09;;;;;;;40.72;24.85;;;9.90;99.90;;;;;;4974846;28;20250;-68
2023/05/16 05:30:35;;;;;;;42.10;26.65;;;10.00;99.90;;;;;;4974704;28;20220;-68
2023/05/16 05:33:02;;;;;;;42.90;26.33;;;10.00;99.90;;;;;;4974744;28;20207;-68
2023/05/16 05:35:29;;;;;;;35.17;24.95;;;10.00;99.90;;;;;;4974351;28;20613;-68
2023/05/16 05:37:55;;;;;;;26.88;19.63;;;10.00;99.90;;;;;;4974571;28;20206;-68
2023/05/16 05:40:22;;;;;;;33.22;22.00;;;10.10;99.90;;;;;;4974560;28;20251;-68
2023/05/16 05:42:50;;;;;;;38.15;25.95;;;10.10;99.90;;;;;;4974815;28;20203;-68
2023/05/16 05:45:17;;;;;;;40.75;26.25;;;10.10;99.90;;;;;;4974551;28;20215;-68
2023/05/16 05:47:44;;;;;;;41.08;25.73;;;10.20;99.90;;;;;;4974197;28;20693;-68
2023/05/16 05:50:11;;;;;;;45.45;27.13;;;10.20;99.90;;;;;;4975197;28;20237;-68
2023/05/16 05:52:38;;;;;;;45.88;27.17;;;10.20;99.90;;;;;;4974472;28;20261;-68
2023/05/16 05:55:06;;;;;;;45.10;28.33;;;10.10;99.90;;;;;;4974059;28;20573;-68
2023/05/16 05:57:32;;;;;;;38.22;25.50;;;10.20;99.90;;;;;;4974412;28;20574;-68
2023/05/16 06:00:00;;;;;;;36.53;24.40;;;10.20;99.90;;;;;;4974223;28;20228;-68
2023/05/16 06:02:28;;;;;;;36.45;24.08;;;10.10;99.90;;;;;;4974411;28;20212;-68
2023/05/16 06:04:54;;;;;;;35.55;23.75;;;10.10;99.90;;;;;;4974217;28;20212;-68
2023/05/16 06:07:21;;;;;;;40.75;26.23;;;10.10;99.90;;;;;;4974059;28;20298;-68
2023/05/16 06:09:48;;;;;;;34.50;23.77;;;10.20;99.90;;;;;;4974062;28;20210;-68
2023/05/16 06:12:15;;;;;;;39.22;25.02;;;10.20;99.90;;;;;;4973883;28;20235;-68
2023/05/16 06:14:42;;;;;;;37.80;24.25;;;10.20;99.90;;;;;;4974025;28;20733;-68
2023/05/16 06:17:10;;;;;;;38.60;23.30;;;10.10;99.90;;;;;;4974378;28;20214;-68
2023/05/16 06:19:37;;;;;;;32.50;22.38;;;10.20;99.90;;;;;;4974307;28;20227;-68
2023/05/16 06:22:04;;;;;;;35.05;23.25;;;10.10;99.90;;;;;;4974080;28;20230;-68
2023/05/16 06:24:30;;;;;;;45.53;26.00;;;10.20;99.90;;;;;;4973874;28;20515;-68
2023/05/16 06:26:57;;;;;;;39.20;24.60;;;10.20;99.90;;;;;;4973857;28;20626;-68
2023/05/16 06:29:24;;;;;;;37.58;24.23;;;10.30;99.90;;;;;;4974201;28;20223;-68
2023/05/16 06:31:50;;;;;;;31.80;20.77;;;10.30;99.90;;;;;;4974348;28;20226;-68
2023/05/16 06:34:19;;;;;;;35.30;24.13;;;10.40;99.90;;;;;;4975313;28;20678;-68
2023/05/16 06:36:46;;;;;;;38.35;25.20;;;10.40;99.90;;;;;;4978158;28;20207;-68
2023/05/16 06:39:12;;;;;;;37.90;24.85;;;10.40;99.90;;;;;;4977991;28;20385;-68
2023/05/16 06:41:39;;;;;;;31.83;21.63;;;10.50;99.90;;;;;;4977893;28;20219;-68
2023/05/16 06:44:06;;;;;;;29.90;19.83;;;10.50;99.90;;;;;;4978193;28;20199;-68
2023/05/16 06:46:33;;;;;;;23.63;16.63;;;10.60;99.90;;;;;;4977822;28;20207;-68
2023/05/16 06:48:59;;;;;;;26.90;18.13;;;10.60;99.90;;;;;;4977465;28;20564;-68
2023/05/16 06:51:27;;;;;;;26.80;18.67;;;10.80;99.90;;;;;;4977664;28;20234;-68
2023/05/16 06:53:54;;;;;;;38.20;23.80;;;11.00;99.90;;;;;;4977687;28;20199;-68
2023/05/16 06:56:21;;;;;;;33.80;22.42;;;11.10;99.90;;;;;;4977611;28;20254;-68
2023/05/16 06:58:48;;;;;;;31.08;21.77;;;11.20;99.90;;;;;;4977092;28;20714;-68
2023/05/16 07:01:15;;;;;;;36.72;23.05;;;11.40;99.90;;;;;;4977490;28;20223;-68
2023/05/16 07:03:41;;;;;;;31.55;20.58;;;11.50;99.90;;;;;;4977484;28;20578;-68
2023/05/16 07:06:08;;;;;;;32.47;23.17;;;11.40;99.90;;;;;;4977534;28;20208;-68
2023/05/16 07:08:36;;;;;;;33.22;21.80;;;11.50;99.90;;;;;;4977468;28;20204;-68
2023/05/16 07:11:03;;;;;;;31.52;20.02;;;11.50;99.90;;;;;;4977178;28;20722;-68
2023/05/16 07:13:30;;;;;;;29.55;21.13;;;11.50;99.90;;;;;;4977059;28;20660;-68
2023/05/16 07:15:57;;;;;;;27.77;19.30;;;11.50;99.90;;;;;;4977275;28;20207;-68
2023/05/16 07:18:23;;;;;;;26.73;17.95;;;11.50;99.90;;;;;;4977126;28;20207;-68
2023/05/16 07:20:50;;;;;;;24.33;17.40;;;11.40;99.90;;;;;;4976749;28;20715;-68
2023/05/16 07:23:17;;;;;;;29.20;19.48;;;11.30;99.90;;;;;;4977082;28;20203;-68
2023/05/16 07:25:45;;;;;;;25.00;19.65;;;11.30;99.90;;;;;;4977202;28;20214;-68
2023/05/16 07:28:11;;;;;;;22.63;16.40;;;11.30;99.90;;;;;;4977170;28;20204;-68
2023/05/16 07:30:38;;;;;;;21.30;15.38;;;11.40;99.90;;;;;;4977086;28;20227;-68
2023/05/16 07:33:05;;;;;;;27.25;19.13;;;11.50;99.90;;;;;;4976675;28;20790;-68
2023/05/16 07:35:31;;;;;;;18.95;15.05;;;11.50;99.90;;;;;;4976906;28;20204;-68
2023/05/16 07:37:58;;;;;;;25.98;19.15;;;11.60;99.90;;;;;;4977256;28;20217;-68
2023/05/16 07:40:28;;;;;;;24.63;17.88;;;11.60;99.90;;;;;;4977291;28;20235;-68
2023/05/16 07:42:56;;;;;;;26.40;17.42;;;11.60;99.90;;;;;;4976899;28;20270;-68
2023/05/16 07:45:22;;;;;;;33.78;20.27;;;11.60;99.90;;;;;;4976627;28;20204;-68
2023/05/16 07:47:49;;;;;;;21.73;15.90;;;11.60;99.90;;;;;;4976780;28;20214;-68
2023/05/16 07:50:16;;;;;;;25.30;19.63;;;11.60;99.90;;;;;;4976655;28;20254;-68
2023/05/16 07:52:42;;;;;;;27.80;18.08;;;11.80;99.90;;;;;;4976868;28;20207;-68
2023/05/16 07:55:10;;;;;;;21.67;16.13;;;11.90;99.90;;;;;;4976732;28;20663;-68
2023/05/16 07:57:37;;;;;;;24.67;18.60;;;12.00;99.90;;;;;;4976812;28;20207;-68
2023/05/16 08:00:06;;;;;;;18.75;15.45;;;12.10;99.90;;;;;;4976114;28;20227;-68
2023/05/16 08:02:33;;;;;;;23.17;17.98;;;12.20;99.90;;;;;;4976543;28;20211;-68
2023/05/16 08:05:00;;;;;;;20.70;15.55;;;12.30;99.90;;;;;;4976543;28;20206;-68
2023/05/16 08:07:27;;;;;;;22.48;16.42;;;12.30;99.90;;;;;;4976942;28;20207;-68
2023/05/16 08:09:53;;;;;;;22.52;16.08;;;12.40;99.90;;;;;;4976594;28;20218;-68
2023/05/16 08:12:20;;;;;;;20.38;15.40;;;12.50;99.90;;;;;;4976249;28;20333;-68
2023/05/16 08:14:47;;;;;;;17.50;14.35;;;12.50;99.90;;;;;;4976461;28;20203;-68
2023/05/16 08:17:15;;;;;;;23.65;16.02;;;12.60;99.90;;;;;;4976648;28;20215;-68
2023/05/16 08:19:41;;;;;;;23.10;17.10;;;12.60;99.90;;;;;;4976138;28;20219;-68
2023/05/16 08:22:09;;;;;;;21.05;15.80;;;12.70;99.90;;;;;;4975842;28;20298;-68
2023/05/16 08:24:36;;;;;;;24.33;17.33;;;12.60;99.90;;;;;;4976294;28;20215;-68
2023/05/16 08:27:03;;;;;;;21.83;16.90;;;12.60;99.90;;;;;;4975897;28;20638;-68
2023/05/16 08:29:30;;;;;;;20.63;15.90;;;12.50;99.90;;;;;;4976486;28;20203;-68
2023/05/16 08:31:57;;;;;;;24.20;17.17;;;12.50;99.90;;;;;;4975874;28;20303;-68
2023/05/16 08:34:25;;;;;;;25.75;16.05;;;12.40;99.90;;;;;;4975621;28;20679;-68
2023/05/16 08:36:53;;;;;;;20.38;15.13;;;12.40;99.90;;;;;;4975923;28;20214;-68
2023/05/16 08:39:19;;;;;;;20.73;16.20;;;12.30;99.90;;;;;;4975836;28;20226;-68
2023/05/16 08:41:46;;;;;;;21.42;15.93;;;12.10;99.90;;;;;;4975745;28;20230;-68
2023/05/16 08:44:20;;;;;;;20.85;15.38;;;12.00;99.90;;;;;;4975907;28;20203;-68
2023/05/16 08:46:50;;;;;;;19.73;15.00;;;11.90;99.90;;;;;;4975919;28;20199;-68
2023/05/16 08:49:18;;;;;;;17.98;13.98;;;11.80;99.90;;;;;;4975966;28;20188;-68
2023/05/16 08:51:47;;;;;;;24.08;16.92;;;11.70;99.90;;;;;;4975555;28;20232;-68
2023/05/16 08:54:15;;;;;;;21.88;15.25;;;11.50;99.90;;;;;;4975716;28;20242;-68
2023/05/16 08:56:42;;;;;;;20.92;14.93;;;11.40;99.90;;;;;;4975191;28;20266;-68
2023/05/16 08:59:10;;;;;;;17.63;13.48;;;11.30;99.90;;;;;;4974995;28;20204;-68
2023/05/16 09:01:37;;;;;;;21.17;14.93;;;11.30;99.90;;;;;;4975313;28;20230;-68
2023/05/16 09:04:06;;;;;;;17.25;12.63;;;11.40;99.90;;;;;;4975254;28;20215;-68
2023/05/16 09:06:33;;;;;;;16.80;12.45;;;11.30;99.90;;;;;;4975195;28;20214;-68
2023/05/16 09:09:03;;;;;;;18.20;12.80;;;11.40;99.90;;;;;;4974899;28;20698;-68
2023/05/16 09:11:30;;;;;;;21.40;15.18;;;11.50;99.90;;;;;;4974978;28;20227;-68
2023/05/16 09:13:56;;;;;;;21.92;13.90;;;11.50;99.90;;;;;;4975008;28;20218;-68
2023/05/16 09:16:23;;;;;;;15.70;12.05;;;11.60;99.90;;;;;;4975126;28;20203;-68
2023/05/16 09:18:55;;;;;;;18.50;13.13;;;11.60;99.90;;;;;;4975053;28;20576;-68
2023/05/16 09:21:22;;;;;;;13.07;9.80;;;11.60;99.90;;;;;;4975186;28;20227;-68
2023/05/16 09:23:49;;;;;;;12.55;9.38;;;11.60;99.90;;;;;;4975002;28;20207;-68
2023/05/16 09:26:18;;;;;;;11.15;9.38;;;11.50;99.90;;;;;;4974937;28;20203;-68
2023/05/16 09:28:45;;;;;;;12.90;11.05;;;11.40;99.90;;;;;;4974832;28;20206;-68
2023/05/16 09:31:25;;;;;;;20.05;16.17;;;11.20;99.90;;;;;;4974878;28;20226;-68
2023/05/16 09:33:52;;;;;;;22.27;16.73;;;11.10;99.90;;;;;;4975146;28;20191;-68
2023/05/16 09:36:18;;;;;;;23.48;17.45;;;11.00;99.90;;;;;;4975299;28;20203;-68
2023/05/16 09:38:45;;;;;;;27.67;19.20;;;10.90;99.90;;;;;;4975197;28;20618;-69
2023/05/16 09:41:12;;;;;;;23.30;17.20;;;10.80;99.90;;;;;;4974656;28;20231;-68
2023/05/16 09:43:41;;;;;;;23.13;17.73;;;10.80;99.90;;;;;;4974608;28;20227;-68
2023/05/16 09:46:08;;;;;;;27.35;18.02;;;10.70;99.90;;;;;;4975152;28;20199;-68
2023/05/16 09:48:35;;;;;;;26.30;18.50;;;10.70;99.90;;;;;;4974779;28;20206;-68
2023/05/16 09:51:05;;;;;;;22.02;17.13;;;10.70;99.90;;;;;;4974556;28;20222;-68
2023/05/16 09:53:33;;;;;;;24.67;15.88;;;10.70;99.90;;;;;;4974608;28;20195;-68
2023/05/16 09:56:01;;;;;;;18.50;14.10;;;10.70;99.90;;;;;;4974285;28;20663;-68
2023/05/16 09:58:29;;;;;;;17.17;11.88;;;10.70;99.90;;;;;;4974470;28;20234;-68
2023/05/16 10:00:58;;;;;;;15.57;12.07;;;10.70;99.90;;;;;;4974403;28;20258;-68
2023/05/16 10:03:25;;;;;;;12.20;10.57;;;10.70;99.90;;;;;;4974587;28;20207;-68
2023/05/16 10:05:53;;;;;;;14.35;11.43;;;10.70;99.90;;;;;;4975039;28;20207;-68
2023/05/16 10:08:21;;;;;;;11.68;10.02;;;10.80;99.90;;;;;;4974363;28;20214;-68
2023/05/16 10:10:51;;;;;;;10.65;9.55;;;10.80;99.90;;;;;;5000656;23;20231;-71
2023/05/16 10:13:20;;;;;;;11.02;8.80;;;10.80;99.90;;;;;;4978716;28;20183;-71
2023/05/16 10:15:48;;;;;;;9.38;8.23;;;10.80;99.90;;;;;;4978383;28;20239;-71
2023/05/16 10:18:18;;;;;;;10.85;9.23;;;10.80;99.90;;;;;;4978398;28;20210;-71
2023/05/16 10:20:48;;;;;;;10.93;8.43;;;10.80;99.90;;;;;;4977858;28;20643;-72
2023/05/16 10:23:18;;;;;;;9.02;8.13;;;10.90;99.90;;;;;;4978550;28;20222;-72
2023/05/16 10:25:46;;;;;;;10.63;7.97;;;10.90;99.90;;;;;;4978272;28;20234;-72
2023/05/16 10:28:13;;;;;;;10.95;9.38;;;10.90;99.90;;;;;;4978437;28;20594;-72
2023/05/16 10:30:42;;;;;;;8.40;7.60;;;10.90;99.90;;;;;;4978312;28;20632;-72
2023/05/16 10:33:11;;;;;;;7.43;6.72;;;10.90;99.90;;;;;;4978277;28;20199;-72
2023/05/16 10:35:40;;;;;;;8.85;7.88;;;11.00;99.90;;;;;;4978079;28;20309;-72
2023/05/16 10:38:09;;;;;;;9.80;8.15;;;11.10;99.90;;;;;;4978295;28;20235;-72
2023/05/16 10:40:37;;;;;;;8.30;7.40;;;11.10;99.90;;;;;;4978907;28;20317;-72
2023/05/16 10:43:05;;;;;;;6.97;6.32;;;11.10;99.90;;;;;;4978090;28;20207;-73
2023/05/16 10:45:32;;;;;;;6.82;6.05;;;11.00;99.90;;;;;;4977952;28;20226;-73
2023/05/16 10:48:00;;;;;;;9.10;7.38;;;11.00;99.90;;;;;;4977961;28;20210;-73
2023/05/16 10:50:35;;;;;;;9.02;7.88;;;10.90;99.90;;;;;;4977871;28;20210;-73
2023/05/16 10:53:18;;;;;;;10.63;8.63;;;10.80;99.90;;;;;;4977871;28;20210;-73
2023/05/16 10:55:48;;;;;;;10.20;8.27;;;10.80;99.90;;;;;;4977859;28;20195;-73
2023/05/16 10:58:22;;;;;;;13.63;9.52;;;10.80;99.90;;;;;;4977827;28;20192;-73
2023/05/16 11:00:49;;;;;;;12.18;9.25;;;10.80;99.90;;;;;;4977323;28;20695;-73
2023/05/16 11:03:24;;;;;;;12.63;9.77;;;10.80;99.90;;;;;;4978390;28;20614;-73
2023/05/16 11:05:53;;;;;;;10.45;9.35;;;10.80;99.90;;;;;;4977551;28;20669;-73
2023/05/16 11:08:21;;;;;;;11.52;9.90;;;10.90;99.90;;;;;;4977657;28;20203;-73
2023/05/16 11:10:48;;;;;;;11.02;9.50;;;11.00;99.90;;;;;;4977430;28;20231;-73
2023/05/16 11:13:18;;;;;;;10.45;9.35;;;11.10;99.90;;;;;;4977827;28;20246;-73
2023/05/16 11:15:45;;;;;;;14.02;11.32;;;11.30;99.90;;;;;;4977624;28;20234;-73
2023/05/16 11:18:15;;;;;;;10.00;8.70;;;11.50;99.90;;;;;;4977527;28;20195;-72
2023/05/16 11:20:42;;;;;;;11.18;8.88;;;11.80;99.90;;;;;;4976724;28;20231;-72
2023/05/16 11:23:21;;;;;;;11.25;9.45;;;12.10;99.90;;;;;;4977764;28;20203;-72
2023/05/16 11:25:50;;;;;;;11.65;10.15;;;12.40;99.90;;;;;;4977320;28;20252;-72
2023/05/16 11:28:18;;;;;;;14.43;10.93;;;12.40;99.90;;;;;;4977298;28;20231;-72
2023/05/16 11:30:47;;;;;;;14.35;9.98;;;12.40;99.90;;;;;;4977246;28;20625;-72
2023/05/16 11:33:14;;;;;;;12.07;9.63;;;12.30;99.90;;;;;;4977206;28;20222;-72
2023/05/16 11:35:41;;;;;;;14.30;11.23;;;12.20;99.90;;;;;;4977605;28;20606;-73
2023/05/16 11:38:12;;;;;;;12.02;10.52;;;12.30;99.90;;;;;;4977131;28;20243;-73
2023/05/16 11:40:44;;;;;;;15.73;10.90;;;12.30;99.90;;;;;;4976966;28;20294;-73
2023/05/16 11:43:11;;;;;;;14.20;10.77;;;12.30;99.90;;;;;;4976948;28;20223;-73
2023/05/16 11:45:38;;;;;;;12.40;10.00;;;12.40;99.90;;;;;;4976643;28;20586;-73
2023/05/16 11:48:07;;;;;;;13.23;10.68;;;12.50;99.90;;;;;;4976902;28;20214;-73
2023/05/16 11:50:34;;;;;;;12.32;9.52;;;12.70;99.90;;;;;;4976818;28;20200;-73
2023/05/16 11:53:01;;;;;;;12.48;9.20;;;12.70;99.90;;;;;;4976755;28;20208;-73
2023/05/16 11:55:29;;;;;;;15.48;11.02;;;12.70;99.90;;;;;;4976740;28;20258;-73
2023/05/16 11:57:59;;;;;;;10.90;9.68;;;12.60;99.90;;;;;;4976699;28;20199;-73
2023/05/16 12:00:26;;;;;;;12.95;10.25;;;12.80;99.90;;;;;;4976484;28;20220;-73
2023/05/16 12:03:01;;;;;;;11.52;10.32;;;13.00;99.90;;;;;;4976623;28;20207;-73
2023/05/16 12:05:30;;;;;;;14.43;10.90;;;13.30;99.90;;;;;;4976614;28;20642;-73
2023/05/16 12:07:56;;;;;;;14.07;11.57;;;13.60;99.90;;;;;;4976518;28;20294;-73
2023/05/16 12:10:23;;;;;;;14.77;11.07;;;13.80;99.90;;;;;;4976039;28;20662;-73
2023/05/16 12:12:52;;;;;;;11.07;9.63;;;13.80;99.90;;;;;;4976396;28;20540;-73
2023/05/16 12:15:20;;;;;;;16.83;11.35;;;13.80;99.90;;;;;;4976313;28;20612;-73
2023/05/16 12:17:48;;;;;;;19.63;12.50;;;13.70;99.90;;;;;;4976003;28;20304;-73
2023/05/16 12:20:15;;;;;;;12.38;10.65;;;13.40;99.90;;;;;;4976296;28;20234;-73
2023/05/16 12:22:44;;;;;;;11.55;9.77;;;13.20;99.90;;;;;;4976114;28;20227;-73
2023/05/16 12:25:25;;;;;;;13.00;10.82;;;13.00;99.90;;;;;;4975933;28;20670;-73
2023/05/16 12:27:53;;;;;;;14.52;11.63;;;12.90;99.90;;;;;;4976129;28;20256;-73
2023/05/16 12:30:22;;;;;;;12.25;10.40;;;12.80;99.90;;;;;;4976061;28;20203;-73
2023/05/16 12:32:53;;;;;;;16.67;11.88;;;12.70;99.90;;;;;;4975073;28;20708;-72
2023/05/16 12:35:20;;;;;;;13.07;10.45;;;12.60;99.90;;;;;;4976043;28;20267;-71
2023/05/16 12:37:47;;;;;;;17.15;12.73;;;12.40;99.90;;;;;;4975846;28;20234;-72
2023/05/16 12:40:13;;;;;;;11.27;10.07;;;12.30;99.90;;;;;;4975847;28;20203;-72
2023/05/16 12:42:43;;;;;;;11.85;9.70;;;12.10;99.90;;;;;;4975917;28;20231;-72
2023/05/16 12:45:15;;;;;;;15.18;10.80;;;12.00;99.90;;;;;;4975758;28;20203;-72
2023/05/16 12:47:44;;;;;;;11.25;9.68;;;11.90;99.90;;;;;;4975513;28;20639;-72
2023/05/16 12:50:13;;;;;;;15.60;10.70;;;11.70;99.90;;;;;;4975467;28;20667;-72
2023/05/16 12:52:47;;;;;;;10.52;8.80;;;11.60;99.90;;;;;;4975681;28;20679;-72
2023/05/16 12:55:14;;;;;;;14.15;9.82;;;11.60;99.90;;;;;;4976135;28;20210;-72
2023/05/16 12:57:43;;;;;;;10.20;8.25;;;11.50;99.90;;;;;;4975311;28;20610;-72
2023/05/16 13:00:11;;;;;;;8.30;7.50;;;11.40;99.90;;;;;;4975173;28;20698;-72
2023/05/16 13:02:38;;;;;;;8.82;7.95;;;11.30;99.90;;;;;;4975657;28;20231;-72
2023/05/16 13:05:07;;;;;;;7.28;6.57;;;11.20;99.90;;;;;;4975269;28;20692;-72
2023/05/16 13:07:34;;;;;;;6.88;5.85;;;11.20;99.90;;;;;;4975421;28;20258;-72
2023/05/16 13:10:01;;;;;;;6.30;5.75;;;11.20;99.90;;;;;;4975472;28;20203;-73
2023/05/16 13:12:28;;;;;;;6.80;6.13;;;11.20;99.90;;;;;;4974832;28;20617;-72
2023/05/16 13:14:54;;;;;;;5.68;5.00;;;11.20;99.90;;;;;;4975366;28;20210;-72
2023/05/16 13:17:22;;;;;;;5.18;4.78;;;11.20;99.90;;;;;;4975248;28;20566;-72
2023/05/16 13:19:49;;;;;;;6.85;5.07;;;11.30;99.90;;;;;;4975221;28;20262;-72
2023/05/16 13:22:18;;;;;;;5.47;5.07;;;11.30;99.90;;;;;;4975128;28;20235;-73
2023/05/16 13:24:44;;;;;;;5.65;4.78;;;11.30;99.90;;;;;;4974922;28;20250;-72
2023/05/16 13:27:11;;;;;;;5.07;4.68;;;11.30;99.90;;;;;;4974910;28;20207;-72
2023/05/16 13:29:38;;;;;;;5.15;4.57;;;11.30;99.90;;;;;;4974668;28;20733;-72
2023/05/16 13:32:06;;;;;;;3.80;3.60;;;11.40;99.90;;;;;;4974904;28;20223;-72
2023/05/16 13:34:33;;;;;;;3.72;3.25;;;11.40;99.90;;;;;;4974978;28;20252;-72
2023/05/16 13:37:00;;;;;;;3.25;3.05;;;11.40;99.90;;;;;;4974993;28;20238;-72
2023/05/16 13:39:28;;;;;;;3.60;3.38;;;11.50;99.90;;;;;;4974794;28;20641;-72
2023/05/16 13:41:55;;;;;;;4.32;3.38;;;11.50;99.90;;;;;;4974968;28;20305;-72
2023/05/16 13:44:22;;;;;;;3.67;3.38;;;11.50;99.90;;;;;;4974596;28;20233;-72
2023/05/16 13:46:49;;;;;;;3.03;2.83;;;11.40;99.90;;;;;;4974803;28;20214;-72
2023/05/16 13:49:15;;;;;;;3.63;3.25;;;11.40;99.90;;;;;;4974718;28;20207;-72
2023/05/16 13:51:42;;;;;;;3.10;2.90;;;11.50;99.90;;;;;;4974627;28;20230;-72
2023/05/16 13:54:09;;;;;;;3.00;2.80;;;11.50;99.90;;;;;;4974657;28;20231;-72
2023/05/16 13:56:37;;;;;;;3.08;2.95;;;11.60;99.90;;;;;;4974840;28;20203;-72
2023/05/16 13:59:04;;;;;;;2.85;2.75;;;11.70;99.90;;;;;;4974352;28;20203;-72
2023/05/16 14:01:30;;;;;;;3.25;2.60;;;11.70;99.90;;;;;;4974572;28;20227;-72
2023/05/16 14:03:57;;;;;;;2.33;2.22;;;11.80;99.90;;;;;;4974309;28;20653;-72
2023/05/16 14:06:24;;;;;;;2.55;2.38;;;11.80;99.90;;;;;;4974606;28;20207;-72
2023/05/16 14:08:50;;;;;;;2.55;2.33;;;11.60;99.90;;;;;;4974660;28;20254;-71
2023/05/16 14:11:18;;;;;;;2.30;2.20;;;11.60;99.90;;;;;;4974305;28;20235;-72
2023/05/16 14:13:47;;;;;;;1.73;1.73;;;11.40;99.90;;;;;;4974576;28;20570;-71
2023/05/16 14:16:13;;;;;;;2.10;2.00;;;11.40;99.90;;;;;;4974465;28;20294;-72
2023/05/16 14:18:40;;;;;;;3.63;1.63;;;11.20;99.90;;;;;;4974521;28;20203;-72
2023/05/16 14:21:07;;;;;;;2.05;1.92;;;11.30;99.90;;;;;;4974041;28;20721;-72
2023/05/16 14:23:34;;;;;;;1.70;1.70;;;11.30;99.90;;;;;;4974411;28;20725;-71
2023/05/16 14:26:01;;;;;;;1.70;1.60;;;11.40;99.90;;;;;;4974407;28;20207;-71
2023/05/16 14:28:28;;;;;;;1.52;1.52;;;11.30;99.90;;;;;;4974387;28;20203;-71
2023/05/16 14:30:56;;;;;;;3.53;1.58;;;11.30;99.90;;;;;;4974357;28;20312;-72
2023/05/16 14:33:22;;;;;;;1.75;1.65;;;11.30;99.90;;;;;;4974173;28;20217;-72
2023/05/16 14:35:49;;;;;;;2.00;1.90;;;11.10;99.90;;;;;;4974199;28;20690;-72
2023/05/16 14:38:16;;;;;;;1.83;1.73;;;10.90;99.90;;;;;;4975192;28;20215;-72
2023/05/16 14:40:42;;;;;;;1.30;1.30;;;10.80;99.90;;;;;;4974164;28;20714;-72
2023/05/16 14:43:09;;;;;;;1.52;1.50;;;10.70;99.90;;;;;;4974773;28;20230;-72
2023/05/16 14:45:38;;;;;;;1.90;1.88;;;10.70;99.90;;;;;;4974781;28;20208;-72
2023/05/16 14:48:06;;;;;;;2.13;2.03;;;10.60;99.90;;;;;;4975566;28;20207;-72
2023/05/16 14:50:34;;;;;;;1.95;1.40;;;10.50;99.90;;;;;;4975090;28;20210;-72
2023/05/16 14:53:00;;;;;;;1.35;1.20;;;10.40;99.90;;;;;;4974335;28;20578;-72
2023/05/16 14:55:27;;;;;;;1.42;1.42;;;10.40;99.90;;;;;;4976376;28;20690;-72
2023/05/16 14:57:54;;;;;;;1.45;1.45;;;10.30;99.90;;;;;;4979738;28;20207;-72
2023/05/16 15:00:24;;;;;;;1.30;1.30;;;10.20;99.90;;;;;;4982885;28;20574;-72
2023/05/16 15:02:51;;;;;;;1.30;1.30;;;10.20;99.90;;;;;;4978049;28;20223;-72
2023/05/16 15:05:19;;;;;;;1.27;1.27;;;10.20;99.90;;;;;;4977976;28;20238;-72
2023/05/16 15:07:46;;;;;;;1.80;1.08;;;10.30;99.90;;;;;;4978332;28;20210;-72
2023/05/16 15:10:13;;;;;;;0.90;0.90;;;10.30;99.90;;;;;;4978074;28;20206;-72
2023/05/16 15:12:42;;;;;;;1.05;1.05;;;10.30;99.90;;;;;;4979589;28;20234;-72
2023/05/16 15:15:10;;;;;;;1.10;1.00;;;10.30;99.90;;;;;;4978920;28;20207;-72
2023/05/16 15:17:37;;;;;;;1.38;1.30;;;10.30;99.90;;;;;;4978169;28;20207;-72
2023/05/16 15:20:05;;;;;;;1.15;1.15;;;10.30;99.90;;;;;;4977946;28;20207;-72
2023/05/16 15:22:33;;;;;;;1.40;1.40;;;10.20;99.90;;;;;;4979176;28;20245;-72
2023/05/16 15:25:00;;;;;;;2.10;2.00;;;10.20;99.90;;;;;;4977884;28;20210;-72
2023/05/16 15:27:27;;;;;;;2.45;2.30;;;10.20;99.90;;;;;;4977512;28;20237;-72
2023/05/16 15:29:53;;;;;;;2.10;2.00;;;10.20;99.90;;;;;;4977410;28;20231;-72
2023/05/16 15:32:22;;;;;;;3.40;3.13;;;10.20;99.90;;;;;;4977584;28;20223;-72
2023/05/16 15:34:49;;;;;;;2.53;2.42;;;10.10;99.90;;;;;;4979001;28;20302;-72
2023/05/16 15:37:16;;;;;;;4.25;2.75;;;10.10;99.90;;;;;;4982408;28;20203;-72
2023/05/16 15:39:44;;;;;;;2.55;2.42;;;10.10;99.90;;;;;;4978734;28;20294;-72
2023/05/16 15:42:12;;;;;;;2.95;2.15;;;10.10;99.90;;;;;;4979286;28;20226;-72
2023/05/16 15:44:39;;;;;;;2.15;2.05;;;10.20;99.90;;;;;;4981604;28;20221;-72
2023/05/16 15:47:07;;;;;;;2.17;2.08;;;10.30;99.90;;;;;;4980943;28;20633;-73
2023/05/16 15:49:34;;;;;;;2.40;2.30;;;10.20;99.90;;;;;;4981919;28;20207;-72
2023/05/16 15:52:02;;;;;;;2.33;2.13;;;10.10;99.90;;;;;;4982138;28;20223;-72
2023/05/16 15:54:29;;;;;;;2.03;1.92;;;10.10;99.90;;;;;;4982427;28;20214;-73
2023/05/16 15:56:57;;;;;;;5.97;5.03;;;10.00;99.90;;;;;;4981357;28;20294;-74
2023/05/16 15:59:25;;;;;;;2.95;2.75;;;9.90;99.90;;;;;;4980943;28;20723;-74
2023/05/16 16:01:52;;;;;;;3.58;2.63;;;9.80;99.90;;;;;;4980680;28;20219;-75
2023/05/16 16:04:22;;;;;;;3.42;3.13;;;9.70;99.90;;;;;;4981869;28;20231;-74
2023/05/16 16:06:52;;;;;;;3.00;2.90;;;9.70;99.90;;;;;;4980326;28;20231;-73
2023/05/16 16:09:19;;;;;;;2.65;2.55;;;9.70;99.90;;;;;;4981345;28;20240;-72
2023/05/16 16:11:46;;;;;;;3.13;2.92;;;9.60;99.90;;;;;;4977503;28;20239;-72
2023/05/16 16:14:14;;;;;;;4.25;3.70;;;9.60;99.90;;;;;;4977409;28;20210;-73
2023/05/16 16:16:41;;;;;;;3.40;3.13;;;9.50;99.90;;;;;;4977125;28;20298;-72
2023/05/16 16:19:08;;;;;;;2.63;2.53;;;9.50;99.90;;;;;;4977136;28;20214;-73
2023/05/16 16:21:34;;;;;;;3.05;2.85;;;9.50;99.90;;;;;;4976901;28;20238;-73
2023/05/16 16:24:01;;;;;;;4.03;3.20;;;9.50;99.90;;;;;;4976975;28;20690;-72
2023/05/16 16:26:28;;;;;;;3.35;3.05;;;9.50;99.90;;;;;;4976792;28;20203;-72
2023/05/16 16:28:54;;;;;;;2.92;2.58;;;9.50;99.90;;;;;;4977102;28;20283;-72
2023/05/16 16:31:23;;;;;;;2.35;2.25;;;9.50;99.90;;;;;;4976779;28;20227;-73
2023/05/16 16:33:49;;;;;;;1.70;1.60;;;9.50;99.90;;;;;;4976503;28;20246;-73
2023/05/16 16:36:16;;;;;;;1.98;1.98;;;9.50;99.90;;;;;;4977198;28;20199;-73
2023/05/16 16:38:43;;;;;;;2.40;2.08;;;9.40;99.90;;;;;;4976702;28;20675;-73